Observations for LONDON HEATHROW, United Kingdom (EGLL)

EGLL 231120Z AUTO 20010KT 170V250 9999 BKN007 BKN011 OVC021 15/13 Q1017 NOSIG   
EGLL 231050Z AUTO 20010KT 170V250 9999 BKN007 14/13 Q1017 TEMPO 4000 -RADZ  
EGLL 231020Z AUTO 21009KT 170V250 9999 -RA BKN007 OVC010 14/13 Q1017 TEMPO 4000 -RADZ   
EGLL 230950Z AUTO 19008KT 150V240 9999 -RA BKN006 BKN009 OVC031 13/12 Q1017 TEMPO 4000 -RADZ
EGLL 230920Z AUTO 20008KT 160V250 9999 BKN007 OVC025 13/12 Q1017 TEMPO 4000 -RADZ   
EGLL 230850Z AUTO 19007KT 150V230 6000 -RA BKN008 OVC034 13/11 Q1018 TEMPO 4000 -RADZ   
EGLL 230820Z AUTO 19006KT 160V230 7000 -RA BKN009 OVC040 12/11 Q1018 TEMPO 4000 -RADZ   
EGLL 230750Z AUTO 20007KT 150V240 9999 SCT013 BKN019 BKN028 12/10 Q1018 BECMG -RA BKN013
EGLL 230720Z AUTO 22007KT 9999 BKN027 12/10 Q1018 TEMPO -RA BKN014  
EGLL 230650Z AUTO 21007KT 180V240 9999 FEW042 11/09 Q1018 TEMPO -RA BKN014  
EGLL 230620Z AUTO 20007KT 170V240 9999 BKN043 11/09 Q1018 NOSIG 
EGLL 230550Z AUTO 18006KT 150V270 9999 NCD 10/09 Q1018 NOSIG
EGLL 230520Z AUTO 19005KT 150V290 9999 NCD 10/08 Q1018 NOSIG
EGLL 230450Z AUTO 20005KT 9999 NCD 11/09 Q1018 NOSIG
EGLL 230420Z AUTO 19005KT 160V250 9999 FEW033 BKN040 11/09 Q1018 NOSIG  
EGLL 230350Z AUTO 19004KT 9999 BKN030 OVC039 11/09 Q1018 NOSIG  
EGLL 230320Z AUTO 21005KT 9999 OVC034 11/08 Q1019 NOSIG 
EGLL 230250Z AUTO 21005KT 9999 OVC041 10/08 Q1018 NOSIG 
EGLL 230220Z AUTO 23007KT 9999 SCT023 BKN045 10/08 Q1019 NOSIG  
EGLL 230150Z AUTO 24007KT 9999 BKN042 10/08 Q1018 NOSIG 
EGLL 230120Z AUTO 24008KT 9999 SCT049 10/08 Q1018 NOSIG 
EGLL 230050Z AUTO 25009KT 9999 NCD 11/08 Q1018 NOSIG
EGLL 230020Z AUTO 26010KT 9999 NCD 11/08 Q1018 NOSIG
EGLL 222350Z AUTO 24007KT 9999 NCD 11/08 Q1018 NOSIG
EGLL 222320Z AUTO 24006KT 9999 NCD 11/08 Q1019 NOSIG
EGLL 222250Z AUTO 25006KT 9999 NCD 11/08 Q1019 NOSIG
EGLL 222220Z AUTO 26010KT 9999 NCD 11/08 Q1019 NOSIG
EGLL 222150Z AUTO 27009KT 9999 NCD 11/08 Q1018 NOSIG
EGLL 222120Z AUTO 26010KT 9999 NCD 11/08 Q1018 NOSIG
EGLL 222050Z AUTO 25008KT 220V280 9999 NCD 11/07 Q1018 NOSIG
EGLL 222020Z AUTO 26012KT 9999 NCD 11/07 Q1018 NOSIG
EGLL 221950Z AUTO 27015KT 9999 NCD 10/07 Q1018 NOSIG
EGLL 221920Z AUTO 27011KT 9999 NCD 11/08 Q1017 NOSIG
EGLL 221850Z AUTO 26010KT 9999 NCD 11/08 Q1017 NOSIG
EGLL 221820Z AUTO 29012KT 9999 -RA BKN033 BKN045 11/07 Q1017 NOSIG  
EGLL 221750Z AUTO 29008KT 9999 -RA FEW023 SCT035 BKN044 11/08 Q1016 NOSIG   
EGLL 221720Z AUTO 27012KT 9999 FEW038 SCT045 11/08 Q1016 NOSIG  
EGLL 221650Z AUTO 28010KT 9999 -RA FEW028/// SCT034/// BKN043/// //////CB 11/08 Q1016 TEMPO SHRA
EGLL 221620Z AUTO 29009KT 9999 -RA SCT037 SCT047 11/08 Q1016 TEMPO SHRA 
EGLL 221550Z AUTO 29009KT 9999 SCT042 12/07 Q1015 NOSIG 
EGLL 221520Z AUTO 27013KT 9999 FEW039/// SCT045/// //////TCU 12/06 Q1015 NOSIG  
EGLL 221450Z AUTO 28016KT 9999 -RA FEW027 BKN042 13/06 Q1015 NOSIG  
EGLL 221420Z AUTO 28016KT 9999 SCT047 14/05 Q1015 NOSIG 
EGLL 221350Z AUTO 27016KT 9999 BKN047 14/04 Q1014 NOSIG 
EGLL 221320Z AUTO 27018G28KT 9999 NCD 14/04 Q1014 NOSIG 
EGLL 221250Z AUTO 27019G30KT 9999 BKN046 14/03 Q1014 NOSIG  
EGLL 221220Z AUTO 29017KT 9999 BKN043 13/03 Q1014 NOSIG 
EGLL 221150Z AUTO 28015KT 9999 BKN040 13/04 Q1014 NOSIG 
EGLL 221120Z AUTO 27019KT 9999 BKN040 12/04 Q1013 NOSIG 
EGLL 221050Z AUTO 28019G33KT 9999 SCT039 BKN047 13/04 Q1013 NOSIG